Pryor, Colorado
Current Conditions -  °F | °C
As of 10:10 AM on Sunday 21 Dec 2014 (Local Time) from KVTP Reporting Station
Clear Clear  
Wind Chill: -11°   Ceiling: Unl
Heat Index: -3°   Visibility: 10mi
Dew Point: -8°   Wind: 20mph
Humidity: 69%   Direction: 200°SSW
Pressure: 29.82"   Gusts: 39mph
Location:  37.6936°N, 104.772°W
Report Text: KVTP 211710Z AUTO 20017G34KT 10SM CLR M03/M08 A2982 RMK AO2
Loading
Personal Weather Stations






























Interactive Weather Map New forecast layout! Learn more

10-Day Weather Forecast

Advertisements
Track Severe Weather on mobile